createdAt,value
2022-08-26T00:02:12.755Z,100075.30
2022-08-26T00:04:40.955Z,100076.37
2022-08-26T00:07:09.454Z,100072.15
2022-08-26T00:09:40.100Z,100078.95
2022-08-26T00:12:12.402Z,100079.17
2022-08-26T00:14:41.212Z,100080.34
2022-08-26T00:17:09.679Z,100074.36
2022-08-26T00:19:38.359Z,100067.17
2022-08-26T00:22:06.714Z,100063.19
2022-08-26T00:24:34.999Z,100062.17
2022-08-26T00:27:03.378Z,100060.71
2022-08-26T00:29:37.408Z,100060.45
2022-08-26T00:32:06.665Z,100064.44
2022-08-26T00:34:36.307Z,100062.57
2022-08-26T00:37:08.934Z,100057.97
2022-08-26T00:39:38.688Z,100057.41
2022-08-26T00:42:07.038Z,100057.98
2022-08-26T00:44:35.328Z,100058.70
2022-08-26T00:47:07.963Z,100065.36
2022-08-26T00:49:39.991Z,100064.88
2022-08-26T00:52:13.159Z,100064.78
2022-08-26T00:54:47.044Z,100059.67
2022-08-26T00:57:19.958Z,100052.52
2022-08-26T00:59:52.840Z,100051.20
2022-08-26T01:02:21.790Z,100049.92
2022-08-26T01:04:56.489Z,100048.23
2022-08-26T01:07:27.397Z,100045.45
2022-08-26T01:09:57.095Z,100045.77
2022-08-26T01:12:28.740Z,100046.54
2022-08-26T01:14:57.321Z,100049.13
2022-08-26T01:17:28.549Z,100046.49
2022-08-26T01:20:10.057Z,100046.45
2022-08-26T01:22:47.624Z,100046.02
2022-08-26T01:25:17.471Z,100044.21
2022-08-26T01:27:46.577Z,100042.98
2022-08-26T01:30:19.161Z,100039.40
2022-08-26T01:32:47.787Z,100041.91
2022-08-26T01:35:18.184Z,100044.35
2022-08-26T01:37:49.913Z,100041.32
2022-08-26T01:40:19.817Z,100042.64
2022-08-26T01:42:49.471Z,100041.39
2022-08-26T01:45:21.969Z,100044.22
2022-08-26T01:47:56.776Z,100044.08
2022-08-26T01:50:31.698Z,100043.70
2022-08-26T01:53:06.628Z,100044.43
2022-08-26T01:55:38.623Z,100045.24
2022-08-26T01:58:14.132Z,100044.06
2022-08-26T02:00:44.081Z,100051.82
2022-08-26T02:03:19.625Z,100050.03
2022-08-26T02:05:57.029Z,100055.33
2022-08-26T02:08:32.081Z,100053.59
2022-08-26T02:11:01.291Z,100054.15
2022-08-26T02:13:30.591Z,100049.45
2022-08-26T02:16:00.855Z,100049.53
2022-08-26T02:18:32.867Z,100046.91
2022-08-26T02:21:01.559Z,100044.48
2022-08-26T02:23:30.600Z,100041.90
2022-08-26T02:26:19.824Z,100041.58
2022-08-26T02:29:05.169Z,100042.27
2022-08-26T02:31:37.051Z,100039.38
2022-08-26T02:34:31.214Z,100039.70
2022-08-26T02:37:03.717Z,100041.23
2022-08-26T02:39:38.928Z,100036.95
2022-08-26T02:42:07.447Z,100038.73
2022-08-26T02:44:36.661Z,100037.41
2022-08-26T02:47:05.227Z,100037.86
2022-08-26T02:49:33.377Z,100036.58
2022-08-26T02:52:01.898Z,100035.15
2022-08-26T02:54:30.101Z,100036.17
2022-08-26T02:56:58.242Z,100031.02
2022-08-26T02:59:27.073Z,100030.92
2022-08-26T03:01:58.166Z,100030.69
2022-08-26T03:04:26.240Z,100030.81
2022-08-26T03:06:55.517Z,100033.67
2022-08-26T03:09:24.525Z,100030.70
2022-08-26T03:11:53.128Z,100027.55
2022-08-26T03:14:23.995Z,100030.22
2022-08-26T03:16:54.103Z,100030.61
2022-08-26T03:19:27.516Z,100029.52
2022-08-26T03:21:57.838Z,100028.22
2022-08-26T03:24:31.693Z,100026.23
2022-08-26T03:27:02.011Z,100020.08
2022-08-26T03:29:57.881Z,100018.60
2022-08-26T03:32:27.243Z,100022.70
2022-08-26T03:34:57.288Z,100017.90
2022-08-26T03:37:26.383Z,100022.56
2022-08-26T03:39:55.343Z,100020.01
2022-08-26T03:42:23.706Z,100022.38
2022-08-26T03:44:51.741Z,100022.90
2022-08-26T03:47:20.217Z,100025.91
2022-08-26T03:49:48.399Z,100024.07
2022-08-26T03:52:19.317Z,100025.98
2022-08-26T03:54:50.703Z,100016.73
2022-08-26T03:57:18.879Z,100016.58
2022-08-26T03:59:48.848Z,100017.16
2022-08-26T04:02:18.196Z,100015.84
2022-08-26T04:04:46.470Z,100019.89
2022-08-26T04:07:14.980Z,100017.54
2022-08-26T04:09:43.555Z,100021.55
2022-08-26T04:12:12.416Z,100017.20
2022-08-26T04:14:42.646Z,100013.06
2022-08-26T04:17:12.963Z,100019.95
2022-08-26T04:19:41.213Z,100018.23
2022-08-26T04:22:09.736Z,100016.59
2022-08-26T04:24:39.820Z,100017.80
2022-08-26T04:27:10.403Z,100021.91
2022-08-26T04:29:42.207Z,100016.61
2022-08-26T04:32:11.137Z,100016.74
2022-08-26T04:34:40.208Z,100018.99
2022-08-26T04:37:10.844Z,100016.73
2022-08-26T04:39:39.123Z,100017.92
2022-08-26T04:42:08.645Z,100021.73
2022-08-26T04:44:40.152Z,100018.07
2022-08-26T04:47:13.913Z,100016.21
2022-08-26T04:49:44.431Z,100019.39
2022-08-26T04:52:12.793Z,100021.23
2022-08-26T04:54:41.952Z,100017.91
2022-08-26T04:57:10.391Z,100020.55
2022-08-26T04:59:39.578Z,100018.20
2022-08-26T05:02:09.425Z,100017.31
2022-08-26T05:04:38.277Z,100012.62
2022-08-26T05:07:10.857Z,100014.77
2022-08-26T05:09:39.988Z,100013.47
2022-08-26T05:12:13.203Z,100017.43
2022-08-26T05:14:41.726Z,100017.93
2022-08-26T05:17:14.814Z,100017.23
2022-08-26T05:19:51.687Z,100020.02
2022-08-26T05:22:25.744Z,100019.33
2022-08-26T05:25:01.254Z,100029.32
2022-08-26T05:28:04.250Z,100027.98
2022-08-26T05:30:40.346Z,100020.27
2022-08-26T05:39:12.569Z,100027.20
2022-08-26T05:45:00.998Z,100031.08
2022-08-26T05:47:36.014Z,100032.03
2022-08-26T05:50:19.111Z,100028.87
2022-08-26T05:53:00.829Z,100031.32
2022-08-26T05:56:17.013Z,100027.21
2022-08-26T05:59:37.904Z,100028.82
2022-08-26T06:02:56.031Z,100023.33
2022-08-26T06:05:24.543Z,100031.04
2022-08-26T06:08:19.376Z,100027.11
2022-08-26T06:10:50.968Z,100031.67
2022-08-26T06:13:35.195Z,100032.13
2022-08-26T06:16:08.864Z,100032.62
2022-08-26T06:29:46.629Z,100028.42
2022-08-26T06:32:29.140Z,100031.54
2022-08-26T06:34:57.789Z,100033.34
2022-08-26T06:37:28.823Z,100029.64
2022-08-26T06:39:58.358Z,100034.13
2022-08-26T06:42:26.472Z,100032.67
2022-08-26T06:44:54.706Z,100029.21
2022-08-26T06:47:22.654Z,100028.27
2022-08-26T06:49:51.112Z,100026.76
2022-08-26T06:52:23.097Z,100024.52
2022-08-26T06:54:53.021Z,100023.73
2022-08-26T06:57:21.201Z,100019.98
2022-08-26T06:59:51.121Z,100020.86
2022-08-26T07:02:20.839Z,100021.91
2022-08-26T07:04:51.207Z,100019.08
2022-08-26T07:07:19.429Z,100015.02
2022-08-26T07:09:52.647Z,100015.34
2022-08-26T07:12:21.656Z,100017.77
2022-08-26T07:14:50.327Z,100022.94
2022-08-26T07:17:19.339Z,100025.54
2022-08-26T07:19:49.160Z,100024.36
2022-08-26T07:22:19.063Z,100027.71
2022-08-26T07:24:46.966Z,100031.14
2022-08-26T07:27:16.694Z,100028.39
2022-08-26T07:29:45.874Z,100028.32
2022-08-26T07:32:15.343Z,100026.66
2022-08-26T07:34:43.844Z,100024.61
2022-08-26T07:37:12.240Z,100023.45
2022-08-26T07:39:41.759Z,100023.07
2022-08-26T07:42:15.470Z,100017.89
2022-08-26T07:44:44.297Z,100012.80
2022-08-26T07:47:25.808Z,100011.31
2022-08-26T07:49:57.497Z,100013.48
2022-08-26T07:52:27.601Z,100015.05
2022-08-26T07:55:00.758Z,100016.06
2022-08-26T07:57:30.440Z,100016.90
2022-08-26T07:59:59.167Z,100017.41
2022-08-26T08:02:28.844Z,100016.06
2022-08-26T08:04:58.008Z,100016.94
2022-08-26T08:07:45.092Z,100017.82
2022-08-26T08:10:21.702Z,100019.12
2022-08-26T08:12:55.422Z,100020.27
2022-08-26T08:15:27.881Z,100022.44
2022-08-26T08:18:00.204Z,100019.88
2022-08-26T08:20:30.097Z,100022.38
2022-08-26T08:22:58.040Z,100019.80
2022-08-26T08:25:26.230Z,100019.13
2022-08-26T08:27:54.154Z,100016.58
2022-08-26T08:30:23.272Z,100013.05
2022-08-26T08:32:52.399Z,100013.50
2022-08-26T08:35:22.661Z,100003.65
2022-08-26T08:37:54.267Z,100005.16
2022-08-26T08:40:25.363Z,100005.08
2022-08-26T08:42:59.295Z,100005.49
2022-08-26T08:45:30.475Z,100001.02
2022-08-26T08:48:11.718Z,100001.81
2022-08-26T08:50:45.747Z,100000.23
2022-08-26T08:53:19.378Z,100000.57
2022-08-26T08:55:50.190Z,100000.11
2022-08-26T08:58:21.670Z,99997.64
2022-08-26T09:00:54.767Z,99996.38
2022-08-26T09:04:01.530Z,99994.09
2022-08-26T09:06:29.691Z,99994.80
2022-08-26T09:08:58.391Z,99990.80
2022-08-26T09:11:26.367Z,99989.83
2022-08-26T09:13:56.208Z,99989.77
2022-08-26T09:16:36.515Z,99990.97
2022-08-26T09:19:19.309Z,99988.10
2022-08-26T09:21:58.812Z,99987.52
2022-08-26T09:24:30.282Z,99986.02
2022-08-26T09:26:59.153Z,99985.40
2022-08-26T09:29:34.045Z,99986.58
2022-08-26T09:32:37.579Z,99990.66
2022-08-26T09:35:23.766Z,99991.17
2022-08-26T09:37:53.162Z,99983.21
2022-08-26T09:40:28.400Z,99983.83
2022-08-26T09:43:22.237Z,99980.59
2022-08-26T09:45:59.458Z,99978.96
2022-08-26T09:48:36.191Z,99974.42
2022-08-26T09:51:24.421Z,99972.41
2022-08-26T09:53:55.365Z,99968.76
2022-08-26T09:56:23.531Z,99964.33
2022-08-26T09:58:51.910Z,99963.52
2022-08-26T10:01:46.399Z,99958.86
2022-08-26T10:04:22.150Z,99961.73
2022-08-26T10:06:59.750Z,99960.16
2022-08-26T10:09:29.878Z,99960.89
2022-08-26T10:12:05.846Z,99955.85
2022-08-26T10:14:48.465Z,99951.89
2022-08-26T10:17:26.781Z,99952.95
2022-08-26T10:20:02.817Z,99952.55
2022-08-26T10:22:43.609Z,99945.39
2022-08-26T10:25:16.034Z,99947.56
2022-08-26T10:28:12.974Z,99949.14
2022-08-26T10:30:45.841Z,99946.36
2022-08-26T10:33:15.500Z,99943.44
2022-08-26T10:35:53.285Z,99937.19
2022-08-26T10:38:29.550Z,99933.12
2022-08-26T10:40:57.439Z,99928.25
2022-08-26T10:43:34.678Z,99929.16
2022-08-26T10:46:10.258Z,99930.36
2022-08-26T10:48:59.806Z,99929.42
2022-08-26T10:51:35.646Z,99926.79
2022-08-26T10:54:14.209Z,99925.33
2022-08-26T10:57:16.550Z,99923.73
2022-08-26T11:00:38.330Z,99921.39
2022-08-26T11:03:21.696Z,99922.80
2022-08-26T11:06:19.552Z,99916.84
2022-08-26T11:08:59.668Z,99912.33
2022-08-26T11:11:39.625Z,99910.67
2022-08-26T11:14:28.398Z,99910.56
2022-08-26T11:16:59.090Z,99907.14
2022-08-26T11:19:50.537Z,99904.52
2022-08-26T11:22:36.254Z,99893.36
2022-08-26T11:25:12.963Z,99889.77
2022-08-26T11:27:41.694Z,99889.21
2022-08-26T11:30:12.658Z,99887.17
2022-08-26T11:32:41.526Z,99883.20
2022-08-26T11:35:12.542Z,99883.65
2022-08-26T11:37:41.229Z,99879.16
2022-08-26T11:40:13.433Z,99879.48
2022-08-26T11:42:44.966Z,99876.55
2022-08-26T11:45:26.902Z,99871.64
2022-08-26T11:47:55.003Z,99869.63
2022-08-26T11:50:26.169Z,99868.82
2022-08-26T11:53:04.303Z,99869.23
2022-08-26T11:55:36.538Z,99859.70
2022-08-26T11:58:05.857Z,99861.19
2022-08-26T12:00:45.752Z,99854.61
2022-08-26T12:03:19.926Z,99854.44
2022-08-26T12:05:49.440Z,99855.21
2022-08-26T12:08:22.124Z,99853.13
2022-08-26T12:11:02.554Z,99853.23
2022-08-26T12:13:30.556Z,99851.70
2022-08-26T12:16:00.318Z,99851.03
2022-08-26T12:18:36.977Z,99854.90
2022-08-26T12:21:22.197Z,99846.46
2022-08-26T12:23:56.259Z,99839.91
2022-08-26T12:26:34.062Z,99835.84
2022-08-26T12:29:19.711Z,99836.14
2022-08-26T12:31:48.816Z,99829.07
2022-08-26T12:34:18.517Z,99829.56
2022-08-26T12:36:53.907Z,99827.88
2022-08-26T12:39:45.246Z,99823.45
2022-08-26T12:42:13.064Z,99818.52
2022-08-26T12:44:53.905Z,99818.95
2022-08-26T12:47:32.686Z,99818.60
2022-08-26T12:50:18.425Z,99816.28
2022-08-26T12:53:10.627Z,99812.17
2022-08-26T12:55:43.831Z,99804.52
2022-08-26T12:58:26.175Z,99806.52
2022-08-26T13:01:14.578Z,99802.23
2022-08-26T13:03:45.277Z,99798.02
2022-08-26T13:06:15.902Z,99796.71
2022-08-26T13:08:44.281Z,99792.55
2022-08-26T13:11:22.551Z,99789.25
2022-08-26T13:13:53.499Z,99786.04
2022-08-26T13:16:22.330Z,99780.05
2022-08-26T13:18:53.671Z,99777.35
2022-08-26T13:21:37.569Z,99779.58
2022-08-26T13:24:11.678Z,99778.73
2022-08-26T13:26:40.734Z,99771.73
2022-08-26T13:29:10.617Z,99763.60
2022-08-26T13:31:40.457Z,99761.17
2022-08-26T13:34:12.027Z,99754.74
2022-08-26T13:36:40.298Z,99749.56
2022-08-26T13:39:08.203Z,99747.86
2022-08-26T13:41:36.759Z,99740.73
2022-08-26T13:44:06.983Z,99741.11
2022-08-26T13:46:35.046Z,99742.91
2022-08-26T13:49:03.917Z,99737.02
2022-08-26T13:51:32.395Z,99731.77
2022-08-26T13:54:01.144Z,99727.19
2022-08-26T13:56:30.156Z,99731.59
2022-08-26T13:58:59.770Z,99729.94
2022-08-26T14:01:30.105Z,99729.39
2022-08-26T14:03:58.875Z,99728.14
2022-08-26T14:06:26.830Z,99726.79
2022-08-26T14:08:54.749Z,99727.34
2022-08-26T14:11:25.045Z,99721.27
2022-08-26T14:13:53.179Z,99719.05
2022-08-26T14:16:34.679Z,99725.48
2022-08-26T14:19:05.022Z,99725.56
2022-08-26T14:21:36.799Z,99729.05
2022-08-26T14:24:06.342Z,99727.91
2022-08-26T14:26:34.598Z,99726.41
2022-08-26T14:29:05.912Z,99726.61
2022-08-26T14:31:35.599Z,99727.64
2022-08-26T14:34:06.292Z,99725.98
2022-08-26T14:36:35.239Z,99726.53
2022-08-26T14:39:09.261Z,99727.27
2022-08-26T14:41:45.616Z,99726.34
2022-08-26T14:44:25.257Z,99721.39
2022-08-26T14:46:54.452Z,99715.40
2022-08-26T14:49:24.393Z,99715.31
2022-08-26T14:51:52.354Z,99714.92
2022-08-26T14:54:21.298Z,99717.46
2022-08-26T14:57:05.122Z,99711.63
2022-08-26T14:59:38.352Z,99712.84
2022-08-26T15:02:08.068Z,99705.77
2022-08-26T15:04:37.267Z,99707.86
2022-08-26T15:07:05.347Z,99704.59
2022-08-26T15:09:36.353Z,99701.44
2022-08-26T15:12:05.667Z,99700.49
2022-08-26T15:14:33.749Z,99697.54
2022-08-26T15:17:02.029Z,99695.35
2022-08-26T15:19:30.118Z,99694.73
2022-08-26T15:22:04.940Z,99691.73
2022-08-26T15:24:33.151Z,99691.16
2022-08-26T15:27:02.204Z,99690.73
2022-08-26T15:29:30.467Z,99685.06
2022-08-26T15:32:05.428Z,99681.15
2022-08-26T15:34:33.726Z,99681.73
2022-08-26T15:37:02.302Z,99682.34
2022-08-26T15:39:30.474Z,99684.05
2022-08-26T15:42:00.029Z,99679.65
2022-08-26T15:44:28.722Z,99676.59
2022-08-26T15:46:58.781Z,99675.84
2022-08-26T15:49:27.595Z,99676.35
2022-08-26T15:51:55.657Z,99672.66
2022-08-26T15:54:24.521Z,99668.91
2022-08-26T15:56:53.262Z,99668.36
2022-08-26T15:59:22.285Z,99665.48
2022-08-26T16:01:51.797Z,99665.34
2022-08-26T16:04:21.486Z,99665.11
2022-08-26T16:06:51.615Z,99665.61
2022-08-26T16:09:23.912Z,99667.41
2022-08-26T16:11:57.419Z,99666.86
2022-08-26T16:14:32.882Z,99664.26
2022-08-26T16:17:01.282Z,99662.27
2022-08-26T16:19:29.738Z,99661.60
2022-08-26T16:21:57.959Z,99656.63
2022-08-26T16:24:30.241Z,99658.90
2022-08-26T16:26:58.824Z,99653.75
2022-08-26T16:29:27.321Z,99655.22
2022-08-26T16:31:55.279Z,99655.91
2022-08-26T16:34:24.733Z,99659.02
2022-08-26T16:36:53.237Z,99660.79
2022-08-26T16:39:21.284Z,99659.32
2022-08-26T16:41:49.314Z,99661.63
2022-08-26T16:44:17.439Z,99656.73
2022-08-26T16:46:45.802Z,99655.00
2022-08-26T16:49:16.916Z,99649.63
2022-08-26T16:51:45.589Z,99648.83
2022-08-26T16:54:13.767Z,99646.42
2022-08-26T16:56:41.682Z,99642.90
2022-08-26T16:59:11.577Z,99646.35
2022-08-26T17:01:39.877Z,99644.86
2022-08-26T17:04:08.252Z,99642.88
2022-08-26T17:06:36.855Z,99640.04
2022-08-26T17:09:05.206Z,99641.14
2022-08-26T17:11:33.842Z,99644.13
2022-08-26T17:14:01.865Z,99643.27
2022-08-26T17:16:30.174Z,99641.84
2022-08-26T17:18:59.032Z,99643.56
2022-08-26T17:21:28.414Z,99645.75
2022-08-26T17:23:57.573Z,99643.77
2022-08-26T17:26:26.921Z,99652.27
2022-08-26T17:28:55.437Z,99653.12
2022-08-26T17:31:25.374Z,99658.39
2022-08-26T17:33:55.556Z,99659.08
2022-08-26T17:36:28.015Z,99652.46
2022-08-26T17:38:58.633Z,99657.24
2022-08-26T17:41:27.131Z,99655.41
2022-08-26T17:43:55.390Z,99651.66
2022-08-26T17:46:24.634Z,99641.29
2022-08-26T17:48:52.837Z,99634.54
2022-08-26T17:51:23.014Z,99633.89
2022-08-26T17:53:52.011Z,99631.46
2022-08-26T17:56:24.200Z,99635.55
2022-08-26T17:59:02.487Z,99634.76
2022-08-26T18:01:32.773Z,99637.60
2022-08-26T18:04:01.675Z,99641.07
2022-08-26T18:06:30.836Z,99638.32
2022-08-26T18:09:00.707Z,99643.36
2022-08-26T18:11:32.145Z,99645.82
2022-08-26T18:14:00.463Z,99642.09
2022-08-26T18:16:31.853Z,99645.53
2022-08-26T18:19:01.323Z,99645.70
2022-08-26T18:21:29.332Z,99648.52
2022-08-26T18:23:58.309Z,99648.80
2022-08-26T18:26:34.505Z,99647.16
2022-08-26T18:29:03.376Z,99646.23
2022-08-26T18:31:31.553Z,99640.91
2022-08-26T18:34:01.372Z,99644.67
2022-08-26T18:36:32.699Z,99647.22
2022-08-26T18:39:02.601Z,99647.40
2022-08-26T18:41:32.707Z,99649.99
2022-08-26T18:44:00.741Z,99652.94
2022-08-26T18:46:28.804Z,99655.55
2022-08-26T18:48:58.483Z,99657.34
2022-08-26T18:51:32.914Z,99658.34
2022-08-26T18:54:03.359Z,99663.20
2022-08-26T18:56:32.239Z,99666.20
2022-08-26T18:59:00.424Z,99676.94
2022-08-26T19:01:30.128Z,99683.84
2022-08-26T19:04:02.494Z,99688.95
2022-08-26T19:06:33.723Z,99697.16
2022-08-26T19:09:03.891Z,99695.22
2022-08-26T19:11:42.316Z,99694.73
2022-08-26T19:14:13.865Z,99699.59
2022-08-26T19:16:45.930Z,99698.10
2022-08-26T19:19:14.939Z,99695.49
2022-08-26T19:21:43.135Z,99695.95
2022-08-26T19:24:15.599Z,99704.05
2022-08-26T19:26:45.956Z,99707.69
2022-08-26T19:29:15.730Z,99711.65
2022-08-26T19:31:44.173Z,99709.77
2022-08-26T19:34:18.308Z,99707.48
2022-08-26T19:36:49.644Z,99708.91
2022-08-26T19:39:17.682Z,99711.94
2022-08-26T19:41:45.589Z,99714.30
2022-08-26T19:44:39.393Z,99714.27
2022-08-26T19:47:09.801Z,99714.65
2022-08-26T19:49:38.260Z,99714.59
2022-08-26T19:52:06.351Z,99706.45
2022-08-26T19:54:36.199Z,99708.77
2022-08-26T19:57:04.950Z,99705.70
2022-08-26T19:59:33.770Z,99700.37
2022-08-26T20:02:05.059Z,99698.13
2022-08-26T20:04:36.120Z,99695.45
2022-08-26T20:07:05.337Z,99698.30
2022-08-26T20:09:34.226Z,99709.10
2022-08-26T20:12:04.372Z,99717.23
2022-08-26T20:14:33.921Z,99730.86
2022-08-26T20:17:04.759Z,99735.98
2022-08-26T20:19:53.728Z,99732.48
2022-08-26T20:22:23.438Z,99727.16
2022-08-26T20:24:52.172Z,99725.36
2022-08-26T20:27:22.278Z,99730.86
2022-08-26T20:29:50.193Z,99735.62
2022-08-26T20:32:19.619Z,99737.22
2022-08-26T20:34:47.781Z,99740.52
2022-08-26T20:37:16.683Z,99740.89
2022-08-26T20:39:49.409Z,99742.55
2022-08-26T20:42:20.009Z,99747.30
2022-08-26T20:44:54.494Z,99769.09
2022-08-26T20:47:23.278Z,99785.92
2022-08-26T20:49:52.640Z,99782.89
2022-08-26T20:52:20.922Z,99788.59
2022-08-26T20:54:48.912Z,99782.58
2022-08-26T20:57:16.917Z,99776.60
2022-08-26T20:59:45.016Z,99760.86
2022-08-26T21:02:12.921Z,99742.55
2022-08-26T21:04:40.859Z,99727.02
2022-08-26T21:07:08.822Z,99725.23
2022-08-26T21:09:36.772Z,99727.64
2022-08-26T21:12:06.705Z,99732.91
2022-08-26T21:14:34.702Z,99734.27
2022-08-26T21:17:02.683Z,99730.75
2022-08-26T21:19:30.720Z,99725.05
2022-08-26T21:21:59.611Z,99724.56
2022-08-26T21:24:27.613Z,99727.08
2022-08-26T21:26:55.598Z,99728.60
2022-08-26T21:29:23.576Z,99725.48
2022-08-26T21:31:51.579Z,99726.05
2022-08-26T21:34:20.280Z,99718.21
2022-08-26T21:36:48.897Z,99709.73
2022-08-26T21:39:16.909Z,99702.17
2022-08-26T21:41:45.742Z,99701.52
2022-08-26T21:44:14.884Z,99704.77
2022-08-26T21:46:44.395Z,99707.02
2022-08-26T21:49:15.615Z,99700.11
2022-08-26T21:51:45.977Z,99691.14
2022-08-26T21:54:15.629Z,99681.66
2022-08-26T21:56:46.583Z,99670.23
2022-08-26T21:59:18.431Z,99669.73
2022-08-26T22:01:47.082Z,99666.14
2022-08-26T22:04:15.662Z,99658.29
2022-08-26T22:06:54.947Z,99657.52
2022-08-26T22:09:25.510Z,99658.21
2022-08-26T22:11:56.819Z,99661.42
2022-08-26T22:14:30.900Z,99668.64
2022-08-26T22:16:59.959Z,99675.58
2022-08-26T22:19:28.086Z,99681.19
2022-08-26T22:21:56.108Z,99679.63
2022-08-26T22:24:25.805Z,99680.20
2022-08-26T22:26:54.601Z,99678.45
2022-08-26T22:29:24.397Z,99679.86
2022-08-26T22:31:52.925Z,99679.70
2022-08-26T22:34:23.101Z,99678.39
2022-08-26T22:36:51.401Z,99676.70
2022-08-26T22:39:22.389Z,99679.27
2022-08-26T22:41:52.106Z,99680.20
2022-08-26T22:44:22.105Z,99680.46
2022-08-26T22:46:54.373Z,99678.17
2022-08-26T22:49:23.302Z,99675.08
2022-08-26T22:51:51.244Z,99672.89
2022-08-26T22:54:19.602Z,99667.98
2022-08-26T22:56:47.543Z,99673.50
2022-08-26T22:59:16.265Z,99672.61
2022-08-26T23:01:44.729Z,99673.75
2022-08-26T23:04:12.660Z,99670.83
2022-08-26T23:06:43.355Z,99666.39
2022-08-26T23:09:18.206Z,99662.45
2022-08-26T23:11:48.368Z,99659.61
2022-08-26T23:14:17.654Z,99661.97
2022-08-26T23:16:45.815Z,99664.16
2022-08-26T23:19:15.546Z,99665.84
2022-08-26T23:21:43.767Z,99667.52
2022-08-26T23:24:12.098Z,99668.77
2022-08-26T23:26:41.634Z,99676.42
2022-08-26T23:29:11.575Z,99674.65
2022-08-26T23:31:41.283Z,99674.40
2022-08-26T23:34:27.771Z,99674.60
2022-08-26T23:36:59.061Z,99671.06
2022-08-26T23:39:28.566Z,99669.70
2022-08-26T23:44:50.118Z,99669.50
2022-08-26T23:47:18.059Z,99668.98
2022-08-26T23:49:45.954Z,99664.77
2022-08-26T23:52:32.854Z,99662.54
2022-08-26T23:55:00.759Z,99662.82
2022-08-26T23:57:29.712Z,99661.91
2022-08-26T23:59:57.936Z,99656.90
